Time;durP1;ratioP1;P1;durP2;ratioP2;P2;SDS_P1;SDS_P2;PMS_P1;PMS_P2;Temp;Humidity;BMP_temperature;BMP_pressure;BME280_temperature;BME280_humidity;BME280_pressure;Samples;Min_cycle;Max_cycle;Signal;HPM_P1;HPM_P2
2022/02/14 00:00:20;;;;;;;5.60;3.70;;;;;;;-0.14;66.82;99868.40;213816;1280;140762;-76
2022/02/14 00:05:42;;;;;;;12.70;7.60;;;;;;;-0.16;66.92;99864.61;213599;1281;150408;-70
2022/02/14 00:10:46;;;;;;;11.50;5.70;;;;;;;-0.18;66.82;99860.80;212776;1279;141216;-69
2022/02/14 00:15:52;;;;;;;8.30;5.40;;;;;;;-0.21;67.02;99860.14;213796;1279;142584;-75
2022/02/14 00:20:58;;;;;;;8.80;5.70;;;;;;;-0.23;67.33;99858.39;213004;1279;142037;-73
2022/02/14 00:26:03;;;;;;;8.40;6.70;;;;;;;-0.22;67.29;99860.56;212582;1280;142204;-72
2022/02/14 00:31:08;;;;;;;6.20;4.50;;;;;;;-0.20;67.47;99861.42;212865;1280;140586;-70
2022/02/14 00:36:14;;;;;;;9.50;5.40;;;;;;;-0.18;67.51;99858.34;212590;1279;143276;-72
2022/02/14 00:41:19;;;;;;;10.80;6.80;;;;;;;-0.15;67.52;99857.92;212719;1279;141192;-79
2022/02/14 00:46:27;;;;;;;10.90;6.00;;;;;;;-0.14;67.57;99852.73;214165;1280;140733;-84
2022/02/14 00:51:31;;;;;;;12.50;6.20;;;;;;;-0.12;67.49;99846.11;213258;1280;140738;-83
2022/02/14 00:56:36;;;;;;;11.20;6.30;;;;;;;-0.10;67.66;99844.77;213958;1279;141031;-79
2022/02/14 01:01:40;;;;;;;12.00;7.10;;;;;;;-0.07;67.70;99837.07;213669;1279;142269;-79
2022/02/14 01:06:45;;;;;;;8.10;4.20;;;;;;;-0.03;67.69;99832.03;212940;1279;140006;-80
2022/02/14 01:11:50;;;;;;;9.50;5.60;;;;;;;-0.02;67.60;99823.33;214694;1280;139551;-79
2022/02/14 01:16:57;;;;;;;7.30;5.10;;;;;;;-0.01;67.37;99819.55;213876;1279;139467;-81
2022/02/14 01:22:01;;;;;;;8.80;5.90;;;;;;;-0.02;67.62;99816.80;214695;1279;139203;-75
2022/02/14 01:27:05;;;;;;;12.50;7.20;;;;;;;-0.03;67.66;99813.06;214683;1279;140925;-76
2022/02/14 01:32:09;;;;;;;6.30;3.60;;;;;;;-0.02;67.64;99809.30;213679;1279;139758;-74
2022/02/14 01:37:13;;;;;;;13.10;7.00;;;;;;;0.02;67.64;99803.31;214915;1279;140021;-94
2022/02/14 01:42:18;;;;;;;10.50;7.20;;;;;;;0.05;67.70;99796.20;213084;1280;140426;-76
2022/02/14 01:47:23;;;;;;;9.00;6.30;;;;;;;0.06;67.66;99794.33;214555;1279;140723;-71
2022/02/14 01:52:30;;;;;;;10.90;6.80;;;;;;;0.06;67.67;99788.20;214482;1279;140725;-74
2022/02/14 01:57:35;;;;;;;11.10;7.20;;;;;;;0.06;67.51;99784.54;214090;1281;139552;-74
2022/02/14 02:02:41;;;;;;;11.50;7.50;;;;;;;0.05;67.64;99779.79;213952;1279;151443;-74
2022/02/14 02:07:45;;;;;;;13.40;8.90;;;;;;;0.03;67.82;99780.30;214305;1280;141286;-76
2022/02/14 02:12:54;;;;;;;11.60;6.10;;;;;;;0.02;68.06;99772.59;213616;1279;142213;-76
2022/02/14 02:18:00;;;;;;;13.30;8.20;;;;;;;0.00;68.08;99764.70;213059;1280;140845;-75
2022/02/14 02:23:04;;;;;;;13.60;8.90;;;;;;;-0.01;68.26;99767.86;212894;1281;139681;-73
2022/02/14 02:28:09;;;;;;;11.30;7.50;;;;;;;-0.01;68.28;99764.55;212997;1280;140484;-78
2022/02/14 02:33:13;;;;;;;15.90;9.70;;;;;;;-0.03;68.26;99764.26;213199;1279;140423;-77
2022/02/14 02:38:18;;;;;;;11.40;8.90;;;;;;;-0.05;68.60;99759.15;213447;1280;140525;-70
2022/02/14 02:43:24;;;;;;;12.00;9.10;;;;;;;-0.06;68.55;99758.10;213865;1279;144960;-74
2022/02/14 02:48:29;;;;;;;13.80;8.40;;;;;;;-0.09;68.85;99758.89;213185;1279;140232;-77
2022/02/14 02:53:34;;;;;;;12.80;8.60;;;;;;;-0.09;68.88;99762.55;213454;1279;140880;-72
2022/02/14 02:58:39;;;;;;;17.70;9.40;;;;;;;-0.10;68.76;99756.20;213734;1279;141094;-85
2022/02/14 03:03:45;;;;;;;14.40;10.00;;;;;;;-0.11;68.87;99752.64;213237;1279;142058;-78
2022/02/14 03:08:51;;;;;;;16.20;10.90;;;;;;;-0.10;68.98;99755.71;214245;1279;140784;-71
2022/02/14 03:13:56;;;;;;;19.50;11.30;;;;;;;-0.10;69.21;99755.21;213562;1279;141598;-75
2022/02/14 03:19:03;;;;;;;17.10;10.00;;;;;;;-0.13;69.30;99749.42;213540;1279;139685;-78
2022/02/14 03:24:08;;;;;;;15.20;9.20;;;;;;;-0.17;69.49;99741.60;213589;1279;142389;-78
2022/02/14 03:29:14;;;;;;;21.20;11.70;;;;;;;-0.21;69.36;99740.33;213800;1279;149742;-75
2022/02/14 03:34:20;;;;;;;13.70;9.40;;;;;;;-0.25;69.63;99741.93;214219;1279;1242879;-75
2022/02/14 03:39:25;;;;;;;22.80;12.00;;;;;;;-0.30;69.88;99739.70;214977;1279;140129;-78
2022/02/14 03:44:30;;;;;;;19.20;12.10;;;;;;;-0.30;69.72;99739.05;214714;1279;141412;-76
2022/02/14 03:49:34;;;;;;;21.10;12.90;;;;;;;-0.29;69.60;99734.20;214864;1279;140940;-79
2022/02/14 03:54:40;;;;;;;17.60;10.90;;;;;;;-0.26;69.70;99735.44;214232;1279;141052;-76
2022/02/14 03:59:45;;;;;;;18.90;11.40;;;;;;;-0.26;69.71;99729.29;213936;1279;141097;-83
2022/02/14 04:04:53;;;;;;;23.50;13.40;;;;;;;-0.31;69.99;99727.27;213642;1279;140260;-68
2022/02/14 04:09:59;;;;;;;15.80;11.90;;;;;;;-0.36;70.24;99722.50;213664;1279;139992;-80
2022/02/14 04:15:05;;;;;;;18.50;11.00;;;;;;;-0.42;70.46;99721.81;214174;1279;139541;-84
2022/02/14 04:20:10;;;;;;;19.50;13.40;;;;;;;-0.51;70.68;99721.48;213992;1279;141383;-82
2022/02/14 04:25:16;;;;;;;22.70;13.30;;;;;;;-0.59;70.53;99714.02;212754;1280;140118;-83
2022/02/14 04:30:23;;;;;;;22.60;14.10;;;;;;;-0.65;70.64;99707.16;213516;1279;139864;-84
2022/02/14 04:35:29;;;;;;;21.60;13.30;;;;;;;-0.67;70.83;99702.81;212494;1279;140003;-80
2022/02/14 04:40:37;;;;;;;16.50;10.60;;;;;;;-0.71;70.92;99698.88;213377;1279;139354;-82
2022/02/14 04:45:41;;;;;;;22.40;12.70;;;;;;;-0.76;71.04;99697.49;212537;1279;140390;-76
2022/02/14 04:50:46;;;;;;;22.00;13.40;;;;;;;-0.86;70.83;99698.13;213060;1279;141007;-80
2022/02/14 04:55:51;;;;;;;23.10;12.90;;;;;;;-0.96;71.15;99696.70;213000;1280;139383;-76
2022/02/14 05:00:56;;;;;;;22.90;11.70;;;;;;;-1.02;71.35;99695.38;213628;1280;140135;-76
2022/02/14 05:06:02;;;;;;;18.50;12.20;;;;;;;-1.07;71.20;99696.41;212434;1280;141609;-65
2022/02/14 05:11:07;;;;;;;23.50;13.00;;;;;;;-1.11;71.53;99692.35;212739;1279;139770;-82
2022/02/14 05:16:12;;;;;;;27.30;11.80;;;;;;;-1.14;71.72;99696.72;212978;1279;139332;-77
2022/02/14 05:21:17;;;;;;;20.20;12.80;;;;;;;-1.18;71.99;99701.25;213772;1279;140431;-76
2022/02/14 05:26:22;;;;;;;30.70;14.00;;;;;;;-1.17;71.93;99697.17;213735;1279;145254;-79
2022/02/14 05:31:27;;;;;;;27.30;14.60;;;;;;;-1.16;71.98;99690.70;213449;1279;142988;-78
2022/02/14 05:36:31;;;;;;;28.10;17.30;;;;;;;-1.15;72.10;99692.77;212736;1279;140839;-75
2022/02/14 05:41:36;;;;;;;28.80;17.40;;;;;;;-1.14;72.34;99694.39;213270;1279;139764;-78
2022/02/14 05:46:40;;;;;;;30.20;15.50;;;;;;;-1.14;72.37;99697.40;215316;1279;140228;-78
2022/02/14 05:51:44;;;;;;;30.80;18.40;;;;;;;-1.16;72.43;99694.23;214810;1279;140550;-76
2022/02/14 05:56:50;;;;;;;29.90;17.70;;;;;;;-1.11;72.53;99694.54;215101;1279;142884;-76
2022/02/14 06:01:55;;;;;;;29.20;17.20;;;;;;;-1.05;72.51;99696.71;214390;1279;140900;-77
2022/02/14 06:06:59;;;;;;;31.80;18.10;;;;;;;-1.00;72.52;99700.61;214398;1279;140928;-85
2022/02/14 06:12:08;;;;;;;;;;;;;;;-0.96;72.57;99703.30;212689;1280;142128;-79
2022/02/14 06:17:12;;;;;;;33.60;20.10;;;;;;;-0.96;72.96;99708.05;215403;1279;127545;-80
2022/02/14 06:22:17;;;;;;;33.20;17.80;;;;;;;-0.89;72.90;99714.29;213355;1280;142107;-74
2022/02/14 06:27:23;;;;;;;37.40;20.10;;;;;;;-0.81;72.89;99713.61;212446;1280;140450;-79
2022/02/14 06:32:27;;;;;;;35.30;19.40;;;;;;;-0.73;72.89;99710.59;213791;1279;141233;-81
2022/02/14 06:37:34;;;;;;;28.20;19.10;;;;;;;-0.63;73.14;99705.39;213254;1279;140999;-81
2022/02/14 06:42:40;;;;;;;37.10;18.50;;;;;;;-0.56;73.27;99703.05;212367;1279;141211;-79
2022/02/14 06:47:46;;;;;;;34.60;17.60;;;;;;;-0.48;72.99;99699.71;212231;1279;141360;-75
2022/02/14 06:52:50;;;;;;;35.90;19.80;;;;;;;-0.36;73.17;99700.54;212880;1280;142746;-72
2022/02/14 06:57:55;;;;;;;33.40;19.80;;;;;;;-0.22;73.15;99698.80;212836;1281;141222;-65
2022/02/14 07:03:02;;;;;;;32.60;20.60;;;;;;;0.11;73.05;99695.58;212746;1279;140660;-71
2022/02/14 07:08:07;;;;;;;32.90;17.10;;;;;;;0.91;73.26;99693.45;213542;1279;161670;-72
2022/02/14 07:13:12;;;;;;;29.90;15.80;;;;;;;1.70;72.56;99695.29;212822;1279;142338;-75
2022/02/14 07:18:18;;;;;;;29.40;17.70;;;;;;;2.62;71.97;99694.92;213105;1279;141228;-75
2022/02/14 07:23:23;;;;;;;24.40;17.50;;;;;;;3.57;70.91;99696.01;214252;1279;140278;-74
2022/02/14 07:28:28;;;;;;;23.60;13.80;;;;;;;4.52;69.89;99694.71;214253;1279;138981;-76
2022/02/14 07:33:33;;;;;;;17.50;11.70;;;;;;;5.20;68.94;99688.62;213475;1280;139485;-77
2022/02/14 07:38:38;;;;;;;25.50;16.60;;;;;;;5.60;67.89;99682.80;213311;1279;139180;-75
2022/02/14 07:43:44;;;;;;;28.20;14.30;;;;;;;5.82;66.94;99685.72;213676;1279;139089;-71
2022/02/14 07:48:49;;;;;;;22.30;16.50;;;;;;;5.92;66.60;99683.33;213112;1279;139603;-78
2022/02/14 07:53:56;;;;;;;22.30;13.30;;;;;;;5.88;65.95;99676.20;214172;1280;143378;-71
2022/02/14 07:59:03;;;;;;;30.20;18.20;;;;;;;5.77;65.58;99677.30;214989;1280;140977;-83
2022/02/14 08:04:07;;;;;;;23.40;15.20;;;;;;;5.72;65.33;99672.92;214958;1280;140982;-75
2022/02/14 08:09:11;;;;;;;20.70;14.60;;;;;;;5.55;65.17;99672.59;214099;1279;140190;-76
2022/02/14 08:14:15;;;;;;;19.40;14.40;;;;;;;5.35;64.93;99664.98;213896;1279;140382;-78
2022/02/14 08:19:20;;;;;;;21.30;12.90;;;;;;;5.13;65.03;99665.81;214115;1280;141225;-75
2022/02/14 08:24:24;;;;;;;29.40;15.80;;;;;;;4.95;65.33;99658.79;213243;1279;140389;-73
2022/02/14 08:29:30;;;;;;;31.00;17.50;;;;;;;4.81;65.57;99656.94;214532;1280;139472;-77
2022/02/14 08:34:35;;;;;;;22.90;13.50;;;;;;;4.68;65.64;99651.04;213079;1279;139896;-73
2022/02/14 08:39:41;;;;;;;26.00;17.30;;;;;;;4.56;65.47;99648.92;212448;1279;139559;-82
2022/02/14 08:44:46;;;;;;;20.70;13.50;;;;;;;4.47;65.94;99645.57;213727;1279;141171;-77
2022/02/14 08:49:51;;;;;;;25.00;14.70;;;;;;;4.40;65.83;99642.92;212866;1279;140850;-74
2022/02/14 08:54:59;;;;;;;22.40;15.80;;;;;;;4.31;66.07;99643.62;213696;1279;140762;-78
2022/02/14 09:00:04;;;;;;;;;;;;;;;4.33;66.21;99639.98;213507;1279;140654;-68
2022/02/14 09:05:09;;;;;;;20.60;14.20;;;;;;;4.33;66.28;99644.35;213882;1280;126246;-73
2022/02/14 09:10:12;;;;;;;18.80;13.80;;;;;;;4.41;66.44;99641.04;213083;1279;140042;-73
2022/02/14 09:15:17;;;;;;;19.20;13.70;;;;;;;4.52;66.49;99638.93;213609;1279;140098;-69
2022/02/14 09:20:24;;;;;;;20.20;13.00;;;;;;;4.60;66.51;99631.64;214221;1280;141689;-72
2022/02/14 09:25:28;;;;;;;22.20;13.90;;;;;;;4.66;66.27;99623.27;212913;1279;139929;-70
2022/02/14 09:30:33;;;;;;;17.90;14.30;;;;;;;4.71;66.17;99618.92;213640;1279;140711;-72
2022/02/14 09:35:38;;;;;;;18.60;12.90;;;;;;;4.78;66.02;99611.63;214011;1279;141177;-69
2022/02/14 09:40:43;;;;;;;15.70;12.20;;;;;;;4.86;66.16;99610.98;212762;1280;141358;-70
2022/02/14 09:45:47;;;;;;;15.70;11.80;;;;;;;4.95;66.04;99602.61;213864;1279;140243;-73
2022/02/14 09:50:51;;;;;;;15.40;11.60;;;;;;;5.03;66.10;99600.60;214352;1279;141214;-71
2022/02/14 09:55:54;;;;;;;13.50;9.50;;;;;;;5.15;65.91;99599.88;214880;1280;141572;-76
2022/02/14 10:00:59;;;;;;;12.70;10.00;;;;;;;5.26;65.85;99597.67;213979;1280;140169;-69
2022/02/14 10:06:05;;;;;;;17.00;9.80;;;;;;;5.33;65.44;99598.90;214942;1279;139808;-77
2022/02/14 10:11:21;;;;;;;12.90;8.90;;;;;;;5.43;65.21;99592.59;214382;1281;141819;-78
2022/02/14 10:16:26;;;;;;;12.90;10.00;;;;;;;5.51;65.03;99590.02;214926;1280;140259;-80
2022/02/14 10:21:31;;;;;;;12.80;9.40;;;;;;;5.60;64.82;99588.70;213461;1281;140429;-72
2022/02/14 10:26:53;;;;;;;15.70;9.70;;;;;;;5.71;64.68;99587.95;214400;1280;151969;-72
2022/02/14 10:32:02;;;;;;;10.60;8.70;;;;;;;5.87;64.39;99582.02;213342;1277;139685;-72
2022/02/14 10:37:09;;;;;;;12.40;8.40;;;;;;;6.00;64.26;99576.92;212874;1279;139671;-73
2022/02/14 10:42:23;;;;;;;10.30;8.20;;;;;;;6.16;63.60;99576.04;213843;1279;141186;-73
2022/02/14 10:47:42;;;;;;;10.20;7.10;;;;;;;6.32;63.78;99562.63;213138;1280;141810;-73
2022/02/14 10:52:55;;;;;;;19.50;9.70;;;;;;;6.54;63.72;99555.98;212332;1279;140606;-70
2022/02/14 10:58:01;;;;;;;10.30;8.50;;;;;;;6.72;63.51;99550.90;213064;1279;139897;-68
2022/02/14 11:03:09;;;;;;;9.30;7.70;;;;;;;6.84;62.79;99545.27;213050;1280;140267;-70
2022/02/14 11:08:16;;;;;;;11.60;8.50;;;;;;;7.01;62.67;99544.40;212598;1281;140597;-72
2022/02/14 11:13:26;;;;;;;15.70;9.60;;;;;;;7.16;62.60;99537.95;213786;1280;140979;-72
2022/02/14 11:18:38;;;;;;;12.90;8.20;;;;;;;7.30;62.03;99529.40;212951;1281;140189;-72
2022/02/14 11:23:51;;;;;;;13.90;7.80;;;;;;;7.47;62.01;99527.31;212992;1281;142386;-68
2022/02/14 11:29:00;;;;;;;13.70;8.30;;;;;;;7.63;61.62;99531.31;213578;1279;140989;-72
2022/02/14 11:34:07;;;;;;;8.60;7.40;;;;;;;7.77;61.34;99528.00;212745;1281;141115;-72
2022/02/14 11:39:29;;;;;;;9.30;6.20;;;;;;;7.87;60.94;99513.69;212709;1279;140526;-69
2022/02/14 11:44:37;;;;;;;8.10;6.30;;;;;;;7.92;60.30;99506.62;214859;1280;140080;-73
2022/02/14 11:49:49;;;;;;;6.50;4.80;;;;;;;8.04;60.31;99504.08;212816;1281;139398;-72
2022/02/14 11:54:58;;;;;;;9.50;7.80;;;;;;;8.15;59.81;99489.61;214584;1279;140535;-72
2022/02/14 12:00:15;;;;;;;12.70;10.20;;;;;;;8.19;59.58;99482.25;215056;1280;139339;-72
2022/02/14 12:05:40;;;;;;;10.80;7.70;;;;;;;8.33;59.67;99483.61;215191;1279;139862;-73
2022/02/14 12:10:44;;;;;;;10.60;9.40;;;;;;;8.44;59.27;99471.62;214838;1280;140185;-77
2022/02/14 12:21:19;;;;;;;11.30;8.30;;;;;;;8.50;58.78;99463.73;214754;1277;150368;-74
2022/02/14 12:26:49;;;;;;;12.80;10.30;;;;;;;8.54;58.72;99463.04;214443;1277;140242;-75
2022/02/14 12:31:58;;;;;;;12.70;7.80;;;;;;;8.56;58.33;99457.50;214447;1277;141157;-73
2022/02/14 12:37:06;;;;;;;10.80;8.70;;;;;;;8.57;57.88;99455.28;212867;1280;140279;-70
2022/02/14 12:42:17;;;;;;;11.00;8.20;;;;;;;8.57;57.78;99450.20;213435;1277;140743;-71
2022/02/14 12:47:23;;;;;;;9.00;7.50;;;;;;;8.56;57.50;99445.86;213659;1277;141005;-75
2022/02/14 12:52:29;;;;;;;10.30;7.40;;;;;;;8.54;57.34;99433.43;213331;1277;139838;-75
2022/02/14 12:57:45;;;;;;;7.30;6.60;;;;;;;8.51;57.29;99431.72;213719;1277;140093;-80
2022/02/14 13:02:55;;;;;;;8.90;6.80;;;;;;;8.55;56.92;99421.48;213278;1277;139384;-75
2022/02/14 13:08:04;;;;;;;9.00;6.80;;;;;;;8.58;57.05;99418.42;212861;1277;141206;-78
2022/02/14 13:13:09;;;;;;;8.80;7.00;;;;;;;8.54;56.84;99406.72;213336;1277;139508;-78
2022/02/14 13:18:15;;;;;;;12.90;9.70;;;;;;;8.46;56.66;99403.71;212913;1277;139097;-74
2022/02/14 13:23:19;;;;;;;9.00;6.70;;;;;;;8.40;56.78;99394.65;212732;1277;138933;-73
2022/02/14 13:28:24;;;;;;;8.80;7.90;;;;;;;8.40;56.83;99395.59;213423;1277;139846;-73
2022/02/14 13:33:30;;;;;;;10.90;7.60;;;;;;;8.32;56.41;99398.08;213617;1279;139368;-74
2022/02/14 13:38:39;;;;;;;13.60;7.60;;;;;;;8.24;56.53;99396.39;213998;1277;139734;-68
2022/02/14 13:43:43;;;;;;;12.60;9.50;;;;;;;8.18;56.22;99386.43;213660;1277;138831;-74
2022/02/14 13:48:48;;;;;;;10.50;7.50;;;;;;;8.12;56.28;99387.65;213247;1277;139905;-71
2022/02/14 13:54:04;;;;;;;11.90;8.30;;;;;;;8.06;56.34;99385.30;214144;1277;139001;-74
2022/02/14 13:59:21;;;;;;;14.70;8.10;;;;;;;8.03;56.33;99389.70;215261;1277;141095;-79
2022/02/14 14:04:28;;;;;;;11.40;7.90;;;;;;;8.03;56.45;99391.45;215648;1277;139434;-74
2022/02/14 14:09:49;;;;;;;11.20;7.40;;;;;;;8.02;56.25;99390.90;215464;1277;140274;-73
2022/02/14 14:14:57;;;;;;;11.20;8.90;;;;;;;8.01;56.17;99390.23;215678;1277;139703;-72
2022/02/14 14:20:02;;;;;;;12.70;8.30;;;;;;;7.93;56.15;99389.98;215268;1277;139646;-71
2022/02/14 14:25:08;;;;;;;11.70;7.60;;;;;;;7.87;56.52;99382.69;215459;1277;139882;-81
2022/02/14 14:30:13;;;;;;;14.40;8.60;;;;;;;7.77;56.03;99382.11;215539;1277;139084;-69
2022/02/14 14:35:19;;;;;;;13.10;8.20;;;;;;;7.72;56.35;99378.90;214795;1277;141975;-76
2022/02/14 14:40:23;;;;;;;9.80;8.20;;;;;;;7.64;56.06;99382.81;213463;1276;139912;-74
2022/02/14 14:45:28;;;;;;;10.30;7.80;;;;;;;7.57;56.07;99376.23;214235;1277;139599;-79
2022/02/14 14:50:32;;;;;;;9.90;7.40;;;;;;;7.48;56.22;99374.38;214054;1277;140407;-78
2022/02/14 14:55:36;;;;;;;32.50;9.60;;;;;;;7.36;56.24;99376.02;214088;1277;139712;-88
2022/02/14 15:00:42;;;;;;;14.20;9.10;;;;;;;7.26;56.17;99369.89;214066;1277;140648;-72
2022/02/14 15:05:46;;;;;;;10.20;7.40;;;;;;;7.14;56.34;99366.29;213920;1277;140133;-73
2022/02/14 15:10:52;;;;;;;14.80;8.60;;;;;;;7.01;56.23;99374.95;213104;1277;139969;-76
2022/02/14 15:15:57;;;;;;;10.50;7.00;;;;;;;6.87;56.45;99374.86;212822;1276;141531;-75
2022/02/14 15:21:03;;;;;;;13.60;7.90;;;;;;;6.70;56.52;99371.52;214662;1277;139246;-75
2022/02/14 15:26:08;;;;;;;14.90;9.90;;;;;;;6.51;56.64;99372.42;213814;1276;141513;-77
2022/02/14 15:31:14;;;;;;;18.30;11.50;;;;;;;6.34;56.71;99367.48;212468;1277;565445;-72
2022/02/14 15:36:21;;;;;;;149.70;71.20;;;;;;;6.16;56.90;99370.34;214331;1277;140720;-78
2022/02/14 15:41:28;;;;;;;23.80;14.70;;;;;;;6.00;57.26;99366.15;214099;1277;140196;-70
2022/02/14 15:46:33;;;;;;;;;;;;;;;5.87;57.13;99366.75;215149;1276;140112;-75
2022/02/14 15:51:44;;;;;;;19.70;13.40;;;;;;;5.68;57.54;99369.08;214613;1277;126834;-72
2022/02/14 15:56:48;;;;;;;16.70;11.10;;;;;;;5.56;57.66;99366.53;213998;1276;140600;-72
2022/02/14 16:01:52;;;;;;;22.50;10.50;;;;;;;5.41;57.92;99363.36;213781;1277;140115;-74
2022/02/14 16:06:57;;;;;;;14.80;10.00;;;;;;;5.26;58.08;99369.76;214210;1277;139503;-74
2022/02/14 16:12:01;;;;;;;13.80;9.60;;;;;;;5.13;58.35;99373.55;214182;1276;141176;-69
2022/02/14 16:17:06;;;;;;;24.10;13.20;;;;;;;5.00;58.51;99373.13;213708;1276;141446;-77
2022/02/14 16:22:10;;;;;;;26.60;12.80;;;;;;;4.88;58.53;99374.30;215584;1277;140091;-82
2022/02/14 16:27:18;;;;;;;13.00;10.80;;;;;;;4.72;58.83;99374.41;215549;1276;138984;-75
2022/02/14 16:32:22;;;;;;;51.30;21.40;;;;;;;4.43;58.96;99378.30;215551;1276;140343;-73
2022/02/14 16:37:27;;;;;;;40.00;21.20;;;;;;;4.09;59.40;99372.02;215577;1276;141012;-69
2022/02/14 16:42:31;;;;;;;31.30;17.80;;;;;;;3.89;59.83;99374.90;215579;1276;140488;-73
2022/02/14 16:47:35;;;;;;;30.50;21.40;;;;;;;3.73;60.29;99372.21;214484;1276;142415;-76
2022/02/14 16:52:50;;;;;;;39.30;22.60;;;;;;;3.52;60.50;99372.85;215024;1276;140572;-80
2022/02/14 16:57:55;;;;;;;25.60;17.00;;;;;;;3.09;60.66;99371.58;213589;1276;139255;-78
2022/02/14 17:03:00;;;;;;;51.40;25.10;;;;;;;2.73;61.04;99376.45;214099;1276;139699;-67
2022/02/14 17:08:05;;;;;;;45.50;23.80;;;;;;;2.52;62.13;99376.17;214218;1277;141159;-75
2022/02/14 17:13:10;;;;;;;34.10;20.80;;;;;;;2.36;62.08;99380.96;214869;1277;140358;-78
2022/02/14 17:18:14;;;;;;;42.60;25.00;;;;;;;2.19;62.56;99379.19;214698;1276;139701;-74
2022/02/14 17:23:20;;;;;;;49.70;27.90;;;;;;;1.99;63.07;99383.67;213221;1277;141103;-74
2022/02/14 17:28:24;;;;;;;40.30;25.10;;;;;;;1.84;63.36;99384.77;212834;1277;141810;-73
2022/02/14 17:33:30;;;;;;;42.20;22.70;;;;;;;1.81;64.34;99382.70;212716;1276;140104;-73
2022/02/14 17:38:35;;;;;;;34.70;22.80;;;;;;;1.81;64.29;99379.55;212716;1277;139828;-73
2022/02/14 17:43:41;;;;;;;36.90;21.70;;;;;;;1.84;64.59;99381.85;214321;1277;139936;-72
2022/02/14 17:48:46;;;;;;;34.90;19.70;;;;;;;1.92;64.66;99379.23;213437;1277;141903;-76
2022/02/14 17:53:51;;;;;;;39.70;21.10;;;;;;;2.01;64.71;99378.07;213965;1276;140919;-74
2022/02/14 17:59:01;;;;;;;33.00;20.20;;;;;;;2.08;64.70;99381.05;214306;1276;140901;-71
2022/02/14 18:04:05;;;;;;;36.30;20.90;;;;;;;2.13;64.32;99373.81;215208;1277;141684;-76
2022/02/14 18:09:10;;;;;;;31.40;19.40;;;;;;;2.20;64.27;99372.11;213951;1277;141579;-78
2022/02/14 18:14:15;;;;;;;30.50;17.30;;;;;;;2.27;64.51;99368.90;215051;1277;158946;-76
2022/02/14 18:19:21;;;;;;;42.40;18.60;;;;;;;2.33;64.23;99366.77;214274;1277;140123;-77
2022/02/14 18:24:26;;;;;;;30.40;18.50;;;;;;;2.35;64.15;99362.80;215614;1276;139967;-77
2022/02/14 18:29:34;;;;;;;28.80;14.30;;;;;;;2.37;64.20;99369.23;214517;1276;140910;-77
2022/02/14 18:34:39;;;;;;;;;;;;;;;2.35;63.88;99364.53;215540;1277;139825;-79
2022/02/14 18:39:44;;;;;;;25.40;14.90;;;;;;;2.31;63.83;99362.10;216057;1277;126694;-78
2022/02/14 18:45:14;;;;;;;24.40;12.70;;;;;;;2.31;63.60;99362.50;214518;1276;139789;-73
2022/02/14 18:50:38;;;;;;;22.50;13.00;;;;;;;2.30;63.70;99367.16;214023;1277;143931;-78
2022/02/14 18:55:42;;;;;;;19.70;12.60;;;;;;;2.29;63.52;99366.21;213595;1276;139516;-81
2022/02/14 19:00:47;;;;;;;24.70;13.00;;;;;;;2.26;63.43;99371.27;213677;1276;139722;-72
2022/02/14 19:06:14;;;;;;;20.70;13.10;;;;;;;2.22;63.35;99370.02;214201;1277;140561;-81
2022/02/14 19:11:18;;;;;;;25.20;14.20;;;;;;;2.18;63.55;99365.95;213812;1277;139430;-80
2022/02/14 19:16:23;;;;;;;21.30;12.40;;;;;;;2.14;63.63;99365.77;213870;1277;140323;-79
2022/02/14 19:21:30;;;;;;;26.30;13.20;;;;;;;2.10;63.54;99367.73;213718;1276;139531;-76
2022/02/14 19:26:40;;;;;;;19.00;12.30;;;;;;;2.03;63.55;99365.63;214016;1276;141783;-74
2022/02/14 19:31:45;;;;;;;22.10;13.10;;;;;;;1.99;64.04;99371.70;213590;1277;140932;-78
2022/02/14 19:37:15;;;;;;;17.00;11.70;;;;;;;1.95;63.81;99369.88;214108;1277;140953;-71
2022/02/14 19:42:20;;;;;;;36.00;14.20;;;;;;;1.92;63.80;99366.65;213284;1276;141346;-77
2022/02/14 19:47:25;;;;;;;25.30;13.20;;;;;;;1.90;63.98;99364.05;213039;1276;141492;-75
2022/02/14 19:52:30;;;;;;;21.00;13.60;;;;;;;1.89;63.87;99366.66;214372;1276;140919;-77
2022/02/14 19:57:35;;;;;;;21.00;13.70;;;;;;;1.90;64.39;99366.67;213724;1276;141121;-73
2022/02/14 20:02:42;;;;;;;18.20;10.40;;;;;;;1.94;64.31;99362.71;213798;1275;140114;-78
2022/02/14 20:07:48;;;;;;;21.50;12.00;;;;;;;1.96;64.32;99358.69;214163;1277;141241;-74
2022/02/14 20:12:54;;;;;;;24.30;11.40;;;;;;;1.96;64.56;99350.02;213447;1277;139768;-70
2022/02/14 20:17:59;;;;;;;28.80;14.00;;;;;;;1.93;64.10;99348.26;214776;1276;139524;-76
2022/02/14 20:23:03;;;;;;;25.80;13.00;;;;;;;1.90;64.51;99345.25;214955;1277;140993;-71
2022/02/14 20:28:08;;;;;;;21.40;9.40;;;;;;;1.90;64.46;99343.02;215653;1276;141060;-80
2022/02/14 20:33:13;;;;;;;19.60;12.80;;;;;;;1.87;64.46;99334.77;215659;1276;140298;-78
2022/02/14 20:38:18;;;;;;;24.80;13.60;;;;;;;1.85;64.54;99335.05;215585;1276;140637;-79
2022/02/14 20:43:22;;;;;;;17.40;12.50;;;;;;;1.85;64.62;99329.94;215427;1277;140389;-80
2022/02/14 20:48:26;;;;;;;20.20;11.60;;;;;;;1.89;65.01;99328.21;214388;1276;141342;-75
2022/02/14 20:53:30;;;;;;;19.50;12.90;;;;;;;1.94;65.41;99330.40;213913;1276;141968;-75
2022/02/14 20:58:34;;;;;;;20.20;14.00;;;;;;;1.98;65.29;99325.87;214553;1276;142023;-74
2022/02/14 21:03:40;;;;;;;13.90;9.40;;;;;;;2.04;65.44;99326.08;213140;1276;140456;-77
2022/02/14 21:08:45;;;;;;;27.00;14.40;;;;;;;2.09;65.69;99323.73;215049;1276;140428;-78
2022/02/14 21:13:50;;;;;;;18.90;12.50;;;;;;;2.13;65.94;99327.58;213700;1276;140354;-76
2022/02/14 21:18:57;;;;;;;26.10;15.40;;;;;;;2.17;65.95;99332.00;212700;1276;139982;-72
2022/02/14 21:24:03;;;;;;;16.00;9.50;;;;;;;2.16;65.91;99322.36;213200;1276;141366;-76
2022/02/14 21:29:29;;;;;;;24.80;16.00;;;;;;;2.12;66.07;99320.13;212784;1276;141241;-71
2022/02/14 21:34:35;;;;;;;18.10;8.50;;;;;;;2.08;66.07;99314.88;213362;1277;140278;-69
2022/02/14 21:39:39;;;;;;;26.30;15.90;;;;;;;2.04;66.48;99310.23;213485;1276;140658;-73
2022/02/14 21:44:45;;;;;;;27.80;15.80;;;;;;;2.02;66.42;99306.29;212519;1277;140374;-73
2022/02/14 21:49:51;;;;;;;27.50;16.80;;;;;;;1.98;66.30;99299.39;213857;1277;141965;-74
2022/02/14 21:54:56;;;;;;;26.90;17.70;;;;;;;1.93;66.67;99298.61;214623;1277;140296;-77
2022/02/14 22:00:01;;;;;;;25.50;17.10;;;;;;;1.93;67.02;99297.95;213877;1276;141250;-78
2022/02/14 22:10:30;;;;;;;29.30;17.30;;;;;;;1.90;66.89;99293.92;213279;1277;141782;-73
2022/02/14 22:15:34;;;;;;;25.90;16.20;;;;;;;1.86;66.97;99297.61;213700;1276;141827;-77
2022/02/14 22:20:38;;;;;;;32.30;17.50;;;;;;;1.84;67.06;99305.96;214171;1277;140812;-72
2022/02/14 22:25:43;;;;;;;31.90;17.80;;;;;;;1.80;67.27;99308.34;214850;1276;139934;-69
2022/02/14 22:30:47;;;;;;;35.50;18.70;;;;;;;1.77;67.14;99311.83;214563;1276;140464;-75
2022/02/14 22:35:52;;;;;;;26.90;17.80;;;;;;;1.76;67.28;99319.24;215588;1276;140168;-75
2022/02/14 22:40:57;;;;;;;27.80;17.20;;;;;;;1.72;67.45;99316.73;215194;1276;141291;-75
2022/02/14 22:46:01;;;;;;;26.70;17.90;;;;;;;1.68;67.35;99308.61;215498;1276;140439;-72
2022/02/14 22:51:09;;;;;;;26.10;17.10;;;;;;;1.64;67.63;99307.25;215300;1277;140691;-76
2022/02/14 22:56:13;;;;;;;27.60;17.80;;;;;;;1.62;67.54;99310.94;215478;1276;141438;-80
2022/02/14 23:01:18;;;;;;;35.00;19.90;;;;;;;1.56;68.02;99313.17;214619;1276;141233;-67
2022/02/14 23:14:09;;;;;;;26.10;16.70;;;;;;;1.56;68.23;99320.25;213812;1277;141051;-73
2022/02/14 23:17:10;;;;;;;28.30;17.40;;;;;;;1.50;68.33;99307.03;214601;1276;141510;-76
2022/02/14 23:22:14;;;;;;;25.30;15.00;;;;;;;1.46;68.50;99299.23;213530;1276;140240;-70
2022/02/14 23:27:20;;;;;;;22.10;14.80;;;;;;;1.40;68.66;99296.30;212689;1276;140875;-70
2022/02/14 23:32:24;;;;;;;32.10;18.60;;;;;;;1.33;68.70;99292.62;213554;1276;141881;-70